Time;durP1;ratioP1;P1;durP2;ratioP2;P2;SDS_P1;SDS_P2;PMS_P1;PMS_P2;Temp;Humidity;BMP_temperature;BMP_pressure;BME280_temperature;BME280_humidity;BME280_pressure;Samples;Min_cycle;Max_cycle;Signal;HPM_P1;HPM_P2
2022/07/26 00:01:58;;;;;;;12.05;10.68;;;;;;;22.46;82.35;94274.34;5055738;28;20212;-64
2022/07/26 00:04:24;;;;;;;11.88;10.65;;;;;;;22.42;82.58;94273.94;5074013;28;20223;-57
2022/07/26 00:06:50;;;;;;;14.55;11.20;;;;;;;22.40;82.55;94270.78;5073488;28;20208;-64
2022/07/26 00:09:16;;;;;;;12.23;10.80;;;;;;;22.44;83.02;94266.00;5073567;28;20533;-60
2022/07/26 00:11:41;;;;;;;12.30;11.00;;;;;;;22.53;81.94;94288.03;5073339;28;20205;-60
2022/07/26 00:14:07;;;;;;;11.35;10.32;;;;;;;22.51;82.04;94280.47;5072876;28;20189;-64
2022/07/26 00:16:34;;;;;;;11.85;10.75;;;;;;;22.39;82.72;94276.97;5073604;28;20244;-63
2022/07/26 00:19:00;;;;;;;11.77;10.60;;;;;;;22.25;83.34;94266.91;5055474;28;20189;-63
2022/07/26 00:21:25;;;;;;;12.45;11.25;;;;;;;22.19;83.73;94265.97;5073508;28;20212;-60
2022/07/26 00:23:51;;;;;;;12.68;11.30;;;;;;;22.35;83.26;94278.41;5073562;28;20549;-63
2022/07/26 00:26:16;;;;;;;11.55;10.52;;;;;;;22.41;83.12;94280.16;5073365;28;20216;-63
2022/07/26 00:28:42;;;;;;;13.05;11.25;;;;;;;22.39;82.75;94283.94;5072351;28;20192;-63
2022/07/26 00:31:10;;;;;;;13.18;10.57;;;;;;;22.41;82.54;94282.75;5073380;28;20208;-59
2022/07/26 00:33:36;;;;;;;12.50;11.20;;;;;;;22.45;82.50;94280.53;5073293;28;20269;-63
2022/07/26 00:36:02;;;;;;;12.80;11.10;;;;;;;22.37;83.38;94265.25;5072745;28;20299;-61
2022/07/26 00:38:27;;;;;;;11.65;10.40;;;;;;;22.42;82.78;94273.94;5073112;28;20287;-60
2022/07/26 00:40:52;;;;;;;12.55;11.35;;;;;;;22.42;82.75;94279.13;5055288;28;20722;-61
2022/07/26 00:43:18;;;;;;;13.15;10.55;;;;;;;22.30;83.01;94270.47;5073025;28;20185;-63
2022/07/26 00:45:43;;;;;;;11.50;10.38;;;;;;;22.41;82.21;94285.34;5073274;28;20216;-64
2022/07/26 00:48:09;;;;;;;12.45;10.85;;;;;;;22.41;82.15;94276.75;5055016;28;20191;-62
2022/07/26 00:50:36;;;;;;;12.45;11.32;;;;;;;22.25;82.98;94262.53;5073210;28;20216;-63
2022/07/26 00:53:01;;;;;;;13.07;11.10;;;;;;;22.21;83.35;94255.41;5072362;28;20188;-63
2022/07/26 00:55:27;;;;;;;12.10;10.77;;;;;;;22.05;84.80;94251.53;5072343;28;20213;-61
2022/07/26 00:57:53;;;;;;;12.95;11.55;;;;;;;22.26;83.84;94266.69;5072899;28;20201;-63
2022/07/26 01:00:22;;;;;;;12.80;11.20;;;;;;;22.40;83.38;94278.56;5072885;28;20192;-63
2022/07/26 01:02:48;;;;;;;12.23;11.02;;;;;;;22.24;84.22;94260.94;5072767;28;20228;-63
2022/07/26 01:05:15;;;;;;;11.90;10.80;;;;;;;22.31;84.44;94268.66;5072859;28;20228;-65
2022/07/26 01:07:41;;;;;;;11.73;10.63;;;;;;;22.22;84.87;94257.00;5054606;28;20192;-62
2022/07/26 01:10:11;;;;;;;12.32;11.13;;;;;;;22.28;83.60;94269.88;5054640;28;20299;-58
2022/07/26 01:12:37;;;;;;;12.35;10.88;;;;;;;22.32;84.46;94267.69;5072989;28;20181;-62
2022/07/26 01:15:04;;;;;;;12.27;11.07;;;;;;;22.26;85.03;94263.34;5072502;28;20250;-63
2022/07/26 01:17:29;;;;;;;12.75;11.45;;;;;;;22.34;84.49;94263.09;5072746;28;20732;-62
2022/07/26 01:19:55;;;;;;;13.27;11.98;;;;;;;22.23;84.79;94254.19;5072573;28;20216;-59
2022/07/26 01:22:20;;;;;;;12.57;11.45;;;;;;;22.08;86.09;94255.50;5072531;28;20208;-59
2022/07/26 01:24:46;;;;;;;12.45;11.20;;;;;;;22.22;85.67;94262.19;5072327;28;20243;-62
2022/07/26 01:27:11;;;;;;;12.18;10.98;;;;;;;22.23;85.11;94264.53;5054193;28;20216;-62
2022/07/26 01:29:36;;;;;;;13.35;12.05;;;;;;;22.05;86.51;94246.34;5072479;28;20185;-63
2022/07/26 01:32:03;;;;;;;11.40;10.35;;;;;;;21.87;87.58;94243.69;5072341;28;20216;-59
2022/07/26 01:34:29;;;;;;;13.07;11.70;;;;;;;21.93;87.62;94258.38;5072369;28;20245;-62
2022/07/26 01:36:55;;;;;;;12.05;10.95;;;;;;;22.26;85.17;94271.88;5072006;28;20220;-63
2022/07/26 01:39:21;;;;;;;12.38;11.07;;;;;;;22.15;86.17;94256.22;5054332;28;20188;-61
2022/07/26 01:41:47;;;;;;;14.70;11.93;;;;;;;22.26;84.66;94261.53;5071931;28;20265;-63
2022/07/26 01:44:12;;;;;;;12.23;11.02;;;;;;;22.21;85.38;94257.97;5054008;28;20193;-62
2022/07/26 01:46:37;;;;;;;14.75;11.65;;;;;;;22.10;85.93;94256.84;5071316;28;20571;-64
2022/07/26 01:49:03;;;;;;;13.60;12.15;;;;;;;21.98;86.66;94247.41;5071746;28;20189;-60
2022/07/26 01:51:29;;;;;;;13.98;12.20;;;;;;;21.85;87.11;94250.84;5071833;28;20213;-62
2022/07/26 01:53:55;;;;;;;14.27;12.88;;;;;;;21.78;87.82;94250.06;5071757;28;20190;-62
2022/07/26 01:56:20;;;;;;;13.75;12.32;;;;;;;21.73;88.12;94261.03;5071811;28;20269;-62
2022/07/26 01:58:45;;;;;;;12.52;11.23;;;;;;;21.69;88.70;94261.66;5054006;28;20200;-61
2022/07/26 02:01:11;;;;;;;13.27;11.98;;;;;;;21.55;89.41;94255.75;5072030;28;20265;-64
2022/07/26 02:03:37;;;;;;;12.98;11.68;;;;;;;21.41;90.97;94259.38;5071994;28;20209;-62
2022/07/26 02:06:04;;;;;;;14.07;12.40;;;;;;;21.35;91.96;94265.38;5071781;28;20288;-60
2022/07/26 02:08:30;;;;;;;13.65;12.35;;;;;;;21.27;92.54;94275.94;5071579;28;20582;-63
2022/07/26 02:11:01;;;;;;;14.15;12.65;;;;;;;21.31;92.95;94284.88;5053714;28;20243;-62
2022/07/26 02:13:38;;;;;;;13.38;12.07;;;;;;;21.39;92.83;94278.72;5053663;28;20169;-63
2022/07/26 02:16:08;;;;;;;12.95;11.55;;;;;;;21.43;92.60;94272.91;5053594;28;20220;-63
2022/07/26 02:18:34;;;;;;;14.18;12.73;;;;;;;21.29;93.90;94281.72;5071501;28;20245;-61
2022/07/26 02:21:00;;;;;;;13.40;12.07;;;;;;;21.26;94.39;94284.72;5071696;28;20208;-62
2022/07/26 02:23:26;;;;;;;14.07;12.60;;;;;;;21.21;94.87;94283.75;5071429;28;20187;-63
2022/07/26 02:25:52;;;;;;;13.32;12.02;;;;;;;21.27;94.49;94285.53;5053352;28;20695;-61
2022/07/26 02:28:18;;;;;;;13.85;12.18;;;;;;;21.24;94.83;94283.34;5071371;28;20279;-65
2022/07/26 02:30:45;;;;;;;15.65;12.90;;;;;;;21.12;95.53;94279.78;5071281;28;20270;-63
2022/07/26 02:33:11;;;;;;;13.50;12.07;;;;;;;21.17;95.15;94280.75;5071385;28;20698;-59
2022/07/26 02:35:36;;;;;;;13.65;11.90;;;;;;;21.18;95.30;94287.53;5071579;28;20205;-61
2022/07/26 02:38:07;;;;;;;12.50;11.20;;;;;;;21.09;96.06;94285.38;5071047;28;20213;-62
2022/07/26 02:40:34;;;;;;;12.98;11.73;;;;;;;21.06;96.26;94281.41;5071420;28;20236;-63
2022/07/26 02:43:00;;;;;;;13.20;11.75;;;;;;;21.16;96.35;94284.34;5071090;28;20551;-63
2022/07/26 02:45:26;;;;;;;13.23;11.82;;;;;;;21.17;96.29;94291.09;5071061;28;20365;-64
2022/07/26 02:47:52;;;;;;;15.13;12.95;;;;;;;21.27;94.96;94293.28;5053215;28;20188;-61
2022/07/26 02:50:19;;;;;;;13.70;12.30;;;;;;;21.16;95.82;94297.28;5071014;28;20193;-58
2022/07/26 02:52:46;;;;;;;14.93;13.43;;;;;;;21.08;96.47;94294.91;5071075;28;20184;-62
2022/07/26 02:55:16;;;;;;;15.35;12.50;;;;;;;21.24;95.81;94286.72;5053413;28;20276;-63
2022/07/26 02:57:41;;;;;;;14.05;12.35;;;;;;;21.29;93.97;94294.66;5052974;28;20251;-59
2022/07/26 03:00:09;;;;;;;13.82;11.93;;;;;;;21.24;94.20;94297.06;5071002;28;20201;-65
2022/07/26 03:02:35;;;;;;;14.23;12.73;;;;;;;20.93;96.07;94289.13;5070786;28;20267;-62
2022/07/26 03:05:05;;;;;;;13.15;11.75;;;;;;;20.93;95.73;94291.72;5070871;28;20189;-63
2022/07/26 03:07:31;;;;;;;13.82;12.48;;;;;;;20.95;95.84;94294.13;5070766;28;20196;-63
2022/07/26 03:09:57;;;;;;;13.77;12.40;;;;;;;20.80;96.74;94292.56;5052854;28;20196;-60
2022/07/26 03:12:22;;;;;;;13.57;12.20;;;;;;;20.87;96.91;94300.28;5070584;28;20208;-60
2022/07/26 03:14:48;;;;;;;15.30;12.52;;;;;;;20.84;96.54;94300.69;5070611;28;20267;-60
2022/07/26 03:17:13;;;;;;;13.30;12.00;;;;;;;20.89;96.81;94300.88;5052703;28;20217;-60
2022/07/26 03:19:39;;;;;;;16.60;13.73;;;;;;;20.92;96.16;94306.47;5070889;28;20650;-62
2022/07/26 03:22:04;;;;;;;13.90;12.15;;;;;;;20.82;97.29;94305.28;5070601;28;20587;-62
2022/07/26 03:24:30;;;;;;;13.80;12.40;;;;;;;20.80;97.85;94309.84;5070742;28;20189;-59
2022/07/26 03:26:55;;;;;;;14.05;12.60;;;;;;;21.00;96.05;94310.59;5070491;28;20204;-61
2022/07/26 03:29:20;;;;;;;14.57;11.70;;;;;;;21.11;94.95;94317.75;5070656;28;20650;-63
2022/07/26 03:31:46;;;;;;;12.02;10.77;;;;;;;21.12;94.60;94316.78;5052637;28;20204;-62
2022/07/26 03:34:12;;;;;;;15.27;11.98;;;;;;;21.03;95.27;94317.22;5070373;28;20188;-62
2022/07/26 03:36:38;;;;;;;17.45;11.98;;;;;;;21.01;92.90;94319.16;5070494;28;20292;-62
2022/07/26 03:39:03;;;;;;;13.30;12.00;;;;;;;21.04;92.86;94323.94;5070478;28;20192;-62
2022/07/26 03:41:30;;;;;;;14.88;12.05;;;;;;;21.05;92.92;94318.56;5070319;28;20837;-63
2022/07/26 03:43:56;;;;;;;12.73;11.40;;;;;;;21.24;91.66;94322.13;5070394;28;20572;-59
2022/07/26 03:46:21;;;;;;;13.60;12.20;;;;;;;21.24;91.38;94320.34;5070211;28;20208;-61
2022/07/26 03:48:47;;;;;;;15.48;11.77;;;;;;;21.26;90.50;94333.84;5070438;28;20306;-62
2022/07/26 03:51:12;;;;;;;16.63;13.05;;;;;;;21.23;90.60;94329.06;5070452;28;20701;-63
2022/07/26 03:53:37;;;;;;;13.93;12.40;;;;;;;21.12;91.71;94316.78;5070563;28;20268;-65
2022/07/26 03:58:47;;;;;;;15.75;12.10;;;;;;;20.91;94.51;94304.84;5070051;28;20183;-61
2022/07/26 04:01:12;;;;;;;13.10;11.65;;;;;;;20.82;95.28;94297.50;5069985;28;20686;-60
2022/07/26 04:03:38;;;;;;;14.43;12.23;;;;;;;20.70;96.53;94299.91;5070039;28;20181;-61
2022/07/26 04:06:04;;;;;;;13.13;11.80;;;;;;;20.78;97.37;94299.72;5070365;28;20213;-58
2022/07/26 04:08:29;;;;;;;13.45;12.05;;;;;;;20.85;95.91;94308.25;5070121;28;20622;-63
2022/07/26 04:10:54;;;;;;;14.65;12.18;;;;;;;20.83;96.65;94302.47;5071651;28;20212;-62
2022/07/26 04:13:22;;;;;;;12.45;11.20;;;;;;;20.92;95.72;94310.81;5073525;28;20176;-63
2022/07/26 04:15:49;;;;;;;13.40;12.00;;;;;;;20.88;95.93;94294.13;5073449;28;20682;-63
2022/07/26 04:18:14;;;;;;;13.43;11.60;;;;;;;20.89;95.93;94298.28;5073416;28;20282;-62
2022/07/26 04:20:41;;;;;;;12.80;11.60;;;;;;;20.87;96.30;94308.84;5073364;28;20682;-63
2022/07/26 04:23:06;;;;;;;13.93;12.02;;;;;;;20.91;96.50;94298.88;5073236;28;20185;-63
2022/07/26 04:25:33;;;;;;;12.65;11.32;;;;;;;20.97;96.27;94295.50;5073553;28;20555;-64
2022/07/26 04:27:59;;;;;;;18.63;14.77;;;;;;;21.04;96.46;94298.09;5073285;28;20617;-63
2022/07/26 04:30:25;;;;;;;13.02;11.68;;;;;;;21.13;95.42;94297.66;5073571;28;20291;-61
2022/07/26 04:32:50;;;;;;;14.60;12.05;;;;;;;21.24;99.95;94296.25;5073152;28;20189;-62
2022/07/26 04:35:15;;;;;;;14.10;11.75;;;;;;;21.45;97.20;94307.13;5073384;28;20181;-62
2022/07/26 04:37:43;;;;;;;15.02;13.43;;;;;;;21.61;95.04;94304.06;5073021;28;20229;-62
2022/07/26 04:40:10;;;;;;;13.45;11.50;;;;;;;21.83;93.38;94314.19;5073003;28;20185;-62
2022/07/26 04:42:36;;;;;;;14.20;12.85;;;;;;;21.93;92.51;94314.53;5073033;28;20193;-61
2022/07/26 04:45:03;;;;;;;14.65;12.52;;;;;;;22.08;96.11;94292.53;5072934;28;20551;-61
2022/07/26 04:47:29;;;;;;;11.73;10.52;;;;;;;22.16;93.18;94313.00;5072861;28;20212;-62
2022/07/26 04:49:54;;;;;;;12.13;10.93;;;;;;;22.37;93.06;94309.28;5073063;28;20220;-59
2022/07/26 04:52:20;;;;;;;13.88;12.32;;;;;;;22.44;88.76;94339.31;5054717;28;20208;-60
2022/07/26 04:54:45;;;;;;;14.75;12.35;;;;;;;22.28;92.32;94288.00;5072912;28;20193;-62
2022/07/26 04:57:11;;;;;;;12.18;10.98;;;;;;;22.53;89.18;94332.88;5072612;28;20606;-64
2022/07/26 04:59:36;;;;;;;13.80;12.32;;;;;;;22.57;88.59;94335.84;5072860;28;20217;-59
2022/07/26 05:02:02;;;;;;;15.15;11.77;;;;;;;22.53;88.50;94337.25;5072275;28;20648;-59
2022/07/26 05:04:27;;;;;;;13.30;11.70;;;;;;;22.52;87.42;94333.88;5072723;28;20262;-59
2022/07/26 05:06:52;;;;;;;13.75;12.35;;;;;;;22.48;89.06;94314.56;5072751;28;20588;-59
2022/07/26 05:09:18;;;;;;;13.68;12.35;;;;;;;22.44;88.22;94317.81;5072610;28;20642;-59
2022/07/26 05:11:43;;;;;;;13.13;11.73;;;;;;;22.53;89.77;94319.13;5071149;28;20647;-57
2022/07/26 05:14:09;;;;;;;13.95;11.77;;;;;;;22.48;91.54;94293.84;5070839;28;20188;-64
2022/07/26 05:16:34;;;;;;;13.80;12.40;;;;;;;22.73;88.95;94324.19;5071754;28;20641;-60
2022/07/26 05:18:59;;;;;;;12.75;11.55;;;;;;;22.81;91.66;94285.03;5072505;28;20235;-63
2022/07/26 05:21:26;;;;;;;12.90;11.57;;;;;;;23.00;86.58;94341.09;5071847;28;20207;-63
2022/07/26 05:23:53;;;;;;;14.65;11.60;;;;;;;23.04;85.90;94345.66;5071773;28;20220;-64
2022/07/26 05:26:18;;;;;;;14.10;11.77;;;;;;;23.11;86.43;94340.38;5072266;28;20602;-63
2022/07/26 05:28:44;;;;;;;13.30;11.93;;;;;;;23.18;88.46;94304.81;5072299;28;20184;-63
2022/07/26 05:31:09;;;;;;;11.63;10.52;;;;;;;23.50;88.24;94316.69;5072207;28;20230;-60
2022/07/26 05:33:35;;;;;;;13.05;11.85;;;;;;;23.76;85.40;94339.75;5072237;28;20219;-61
2022/07/26 05:36:00;;;;;;;12.07;10.38;;;;;;;24.08;83.83;94356.75;5072595;28;20235;-62
2022/07/26 05:38:26;;;;;;;14.63;10.68;;;;;;;24.43;81.54;94384.66;5072161;28;20331;-63
2022/07/26 05:40:52;;;;;;;12.10;10.98;;;;;;;24.79;79.28;94408.78;5072222;28;20299;-62
2022/07/26 05:43:17;;;;;;;11.50;10.32;;;;;;;25.15;76.81;94436.44;5072224;28;20277;-62
2022/07/26 05:45:43;;;;;;;15.90;10.82;;;;;;;25.39;75.16;94458.88;5054124;28;20204;-61
2022/07/26 05:48:08;;;;;;;13.93;10.82;;;;;;;25.42;74.38;94442.84;5072054;28;20272;-60
2022/07/26 05:50:33;;;;;;;14.05;12.07;;;;;;;25.51;72.05;94479.75;5071987;28;20693;-63
2022/07/26 05:52:59;;;;;;;11.52;10.13;;;;;;;25.22;74.64;94411.13;5072023;28;20658;-61
2022/07/26 05:55:25;;;;;;;11.45;10.35;;;;;;;25.23;74.82;94409.31;5072050;28;20224;-62
2022/07/26 05:57:51;;;;;;;11.52;10.07;;;;;;;25.22;75.23;94407.72;5071747;28;20262;-60
2022/07/26 06:00:17;;;;;;;12.57;11.27;;;;;;;25.21;74.43;94419.16;5072143;28;20193;-61
2022/07/26 06:02:42;;;;;;;12.73;11.48;;;;;;;25.13;74.99;94402.03;5071848;28;20267;-63
2022/07/26 06:05:08;;;;;;;18.67;13.95;;;;;;;25.00;77.21;94358.03;5072199;28;20193;-62
2022/07/26 06:07:33;;;;;;;14.70;11.57;;;;;;;25.19;77.37;94363.94;5053710;28;20745;-62
2022/07/26 06:09:59;;;;;;;18.02;13.50;;;;;;;25.04;77.58;94343.56;5071793;28;20184;-63
2022/07/26 06:12:25;;;;;;;13.32;11.80;;;;;;;25.24;77.71;94351.81;5036961;28;20231;-61
2022/07/26 06:14:50;;;;;;;17.23;12.05;;;;;;;25.32;75.34;94392.31;5071652;28;20678;-61
2022/07/26 06:17:16;;;;;;;16.38;13.77;;;;;;;24.94;75.61;94367.53;5071313;28;20216;-62
2022/07/26 06:19:44;;;;;;;16.50;12.63;;;;;;;24.63;77.33;94344.38;5072015;28;20189;-64
2022/07/26 06:22:10;;;;;;;17.55;14.05;;;;;;;24.63;77.34;94346.97;5054063;28;20204;-62
2022/07/26 06:24:35;;;;;;;19.15;13.95;;;;;;;24.26;78.60;94310.97;5071671;28;20212;-63
2022/07/26 06:27:01;;;;;;;18.58;14.10;;;;;;;24.63;77.98;94327.97;5071262;28;20290;-63
2022/07/26 06:29:26;;;;;;;16.38;13.48;;;;;;;24.46;78.66;94321.84;5071643;28;20210;-65
2022/07/26 06:31:51;;;;;;;17.00;13.07;;;;;;;24.32;78.55;94313.44;5071276;28;20200;-60
2022/07/26 06:34:17;;;;;;;24.45;20.95;;;;;;;24.39;79.35;94305.56;5070926;28;20648;-63
2022/07/26 06:36:43;;;;;;;21.30;18.00;;;;;;;24.50;79.52;94297.00;5071146;28;20217;-63
2022/07/26 06:39:08;;;;;;;15.93;11.93;;;;;;;24.13;79.63;94304.94;5071249;28;20276;-63
2022/07/26 06:41:34;;;;;;;17.85;12.95;;;;;;;24.07;79.68;94300.63;5071036;28;20200;-62
2022/07/26 06:43:59;;;;;;;15.43;13.05;;;;;;;24.13;79.34;94304.13;5071131;28;20185;-62
2022/07/26 06:46:25;;;;;;;15.65;13.75;;;;;;;24.18;79.17;94312.03;5071193;28;20199;-64
2022/07/26 06:48:51;;;;;;;16.00;11.57;;;;;;;24.33;78.73;94315.03;5071104;28;20180;-64
2022/07/26 06:51:16;;;;;;;13.38;12.05;;;;;;;24.36;79.09;94319.00;5071466;28;20216;-63
2022/07/26 06:53:42;;;;;;;17.65;13.15;;;;;;;24.35;78.51;94320.81;5053041;28;20201;-64
2022/07/26 06:56:07;;;;;;;16.67;12.95;;;;;;;24.17;78.98;94307.88;5071056;28;20212;-64
2022/07/26 06:58:33;;;;;;;15.20;12.85;;;;;;;24.23;79.69;94298.41;5070861;28;20232;-59
2022/07/26 07:00:58;;;;;;;16.45;12.73;;;;;;;24.52;79.04;94311.38;5078887;22;20228;-59
2022/07/26 07:03:24;;;;;;;15.35;12.55;;;;;;;24.65;78.74;94321.56;5070912;28;20196;-60
2022/07/26 07:05:50;;;;;;;14.25;12.48;;;;;;;24.39;78.89;94314.16;5070797;28;20307;-59
2022/07/26 07:08:16;;;;;;;22.98;13.82;;;;;;;24.32;78.47;94321.25;5070632;28;20177;-59
2022/07/26 07:10:42;;;;;;;17.05;13.38;;;;;;;24.63;77.50;94339.19;5052571;28;20298;-61
2022/07/26 07:13:07;;;;;;;14.40;12.98;;;;;;;24.75;77.58;94339.22;5070647;28;20181;-60
2022/07/26 07:15:33;;;;;;;15.90;13.02;;;;;;;24.88;76.86;94349.44;5070551;28;20220;-65
2022/07/26 07:17:58;;;;;;;13.68;12.32;;;;;;;24.99;76.73;94349.44;5070521;28;20205;-65
2022/07/26 07:20:24;;;;;;;16.17;12.50;;;;;;;24.95;77.19;94340.50;5070564;28;20216;-64
2022/07/26 07:22:50;;;;;;;14.15;12.23;;;;;;;25.01;76.46;94351.03;5070285;28;20694;-64
2022/07/26 07:25:16;;;;;;;15.65;13.30;;;;;;;24.89;75.70;94359.59;5070601;28;20208;-63
2022/07/26 07:27:41;;;;;;;14.68;12.80;;;;;;;24.90;73.33;94397.63;5070561;28;20259;-64
2022/07/26 07:30:09;;;;;;;18.20;13.45;;;;;;;24.81;73.57;94393.75;5070281;28;20571;-64
2022/07/26 07:32:35;;;;;;;18.98;13.50;;;;;;;24.77;73.64;94384.81;5070404;28;20263;-63
2022/07/26 07:35:00;;;;;;;13.52;12.10;;;;;;;24.81;72.69;94406.75;5070694;28;20213;-64
2022/07/26 07:37:26;;;;;;;15.23;12.43;;;;;;;25.06;72.61;94408.38;5070326;28;20235;-62
2022/07/26 07:39:51;;;;;;;16.38;13.30;;;;;;;25.23;73.40;94393.69;5070683;28;20539;-64
2022/07/26 07:42:18;;;;;;;19.50;13.75;;;;;;;25.37;73.50;94390.63;5070238;28;20209;-62
2022/07/26 07:44:44;;;;;;;17.08;13.05;;;;;;;25.54;71.70;94419.41;5070559;28;20279;-63
2022/07/26 07:47:09;;;;;;;15.77;13.43;;;;;;;25.67;71.83;94406.16;5073696;28;20251;-66
2022/07/26 07:49:35;;;;;;;17.02;12.93;;;;;;;25.85;70.27;94442.50;5081367;22;20231;-64
2022/07/26 07:52:01;;;;;;;20.30;13.55;;;;;;;25.97;69.60;94445.88;5081131;22;20221;-64
2022/07/26 07:54:26;;;;;;;15.18;13.52;;;;;;;25.74;69.33;94443.28;5073921;28;20189;-65
2022/07/26 07:56:54;;;;;;;16.42;14.30;;;;;;;25.65;70.60;94403.00;5073578;28;20674;-63
2022/07/26 07:59:20;;;;;;;17.10;14.15;;;;;;;25.60;68.12;94447.16;5073702;28;20315;-62
2022/07/26 08:01:46;;;;;;;16.08;13.38;;;;;;;25.70;68.21;94442.97;5073669;28;20227;-61
2022/07/26 08:04:11;;;;;;;16.33;12.80;;;;;;;25.69;67.98;94440.59;5073596;28;20571;-66
2022/07/26 08:06:37;;;;;;;18.02;12.52;;;;;;;25.69;67.25;94456.22;5073745;28;20213;-64
2022/07/26 08:09:03;;;;;;;15.32;12.50;;;;;;;25.89;68.41;94433.22;5081075;22;20759;-63
2022/07/26 08:11:28;;;;;;;14.40;12.95;;;;;;;26.03;66.39;94468.41;5073231;28;20705;-63
2022/07/26 08:13:54;;;;;;;15.27;12.68;;;;;;;26.15;67.09;94453.59;5073951;28;20209;-63
2022/07/26 08:16:19;;;;;;;16.45;14.55;;;;;;;26.17;66.61;94437.69;5073009;28;20216;-64
2022/07/26 08:18:44;;;;;;;22.52;13.50;;;;;;;26.32;66.19;94457.03;5073128;28;20231;-63
2022/07/26 08:21:10;;;;;;;15.68;14.05;;;;;;;26.38;65.21;94476.97;5073366;28;20208;-60
2022/07/26 08:23:35;;;;;;;14.52;12.98;;;;;;;26.49;66.12;94449.28;5074797;28;20208;-60
2022/07/26 08:26:01;;;;;;;18.65;13.15;;;;;;;26.52;64.62;94472.31;5073080;28;20200;-60
2022/07/26 08:28:27;;;;;;;21.58;13.50;;;;;;;26.78;64.20;94484.03;5080869;22;20710;-63
2022/07/26 08:30:53;;;;;;;23.17;14.30;;;;;;;26.73;63.89;94469.06;5073295;28;20228;-62
2022/07/26 08:33:18;;;;;;;15.13;13.02;;;;;;;26.95;65.20;94441.28;5073247;28;20601;-63
2022/07/26 08:35:44;;;;;;;14.90;13.38;;;;;;;27.23;64.82;94443.81;5073091;28;20284;-64
2022/07/26 08:38:10;;;;;;;17.00;13.15;;;;;;;27.39;63.74;94471.03;5072816;28;20400;-64
2022/07/26 08:40:35;;;;;;;15.57;13.05;;;;;;;27.43;61.95;94506.09;5055052;28;20275;-64
2022/07/26 08:43:01;;;;;;;16.48;13.65;;;;;;;27.41;60.39;94529.81;5072965;28;20287;-63
2022/07/26 08:45:29;;;;;;;14.45;12.77;;;;;;;27.47;60.90;94496.75;5073030;28;20284;-64
2022/07/26 08:47:56;;;;;;;15.13;12.75;;;;;;;27.39;60.48;94520.66;5073319;28;20254;-64
2022/07/26 08:50:22;;;;;;;16.10;12.82;;;;;;;27.35;59.90;94519.53;5054859;28;20266;-66
2022/07/26 08:52:50;;;;;;;14.65;12.93;;;;;;;27.73;60.27;94493.50;5073145;28;20189;-63
2022/07/26 08:55:18;;;;;;;15.60;12.75;;;;;;;27.87;61.30;94471.22;5072907;28;20184;-65
2022/07/26 08:57:44;;;;;;;19.35;13.13;;;;;;;27.96;58.87;94524.69;5072584;28;20241;-63
2022/07/26 09:00:29;;;;;;;14.50;13.05;;;;;;;27.88;60.18;94491.06;5072821;28;20204;-65
2022/07/26 09:03:02;;;;;;;14.27;12.77;;;;;;;27.90;59.01;94507.31;5073085;28;20189;-64
2022/07/26 09:05:31;;;;;;;15.77;12.90;;;;;;;28.17;57.74;94528.38;5054701;28;20213;-63
2022/07/26 09:07:57;;;;;;;16.38;12.85;;;;;;;28.14;56.94;94549.75;5072530;28;20197;-59
2022/07/26 09:10:23;;;;;;;15.68;13.10;;;;;;;28.00;55.29;94583.31;5072493;28;20205;-60
2022/07/26 09:12:56;;;;;;;14.45;12.73;;;;;;;27.88;54.15;94581.75;5072761;28;20191;-60
2022/07/26 09:15:24;;;;;;;14.25;12.85;;;;;;;27.94;53.98;94594.69;5072424;28;20291;-61
2022/07/26 09:17:53;;;;;;;13.98;12.27;;;;;;;28.24;54.51;94566.41;5072344;28;20221;-63
2022/07/26 09:20:22;;;;;;;13.70;12.30;;;;;;;28.33;54.20;94558.13;5072426;28;20646;-63
2022/07/26 09:22:58;;;;;;;14.32;12.48;;;;;;;28.40;54.03;94577.88;5054408;28;20207;-64
2022/07/26 09:25:24;;;;;;;14.48;11.95;;;;;;;28.73;53.39;94580.41;5072387;28;20200;-63
2022/07/26 09:27:51;;;;;;;16.33;11.65;;;;;;;28.67;50.91;94646.81;5072534;28;20257;-65
2022/07/26 09:30:25;;;;;;;13.27;11.70;;;;;;;28.86;53.08;94569.59;5072444;28;20282;-61
2022/07/26 09:33:05;;;;;;;12.98;11.00;;;;;;;28.99;49.88;94633.88;5072548;28;20205;-60
2022/07/26 09:35:33;;;;;;;13.80;10.85;;;;;;;29.15;48.33;94689.88;5054305;28;20218;-60
2022/07/26 09:37:59;;;;;;;10.63;9.63;;;;;;;29.19;46.91;94566.03;5072232;28;20212;-61
2022/07/26 09:40:33;;;;;;;11.25;10.23;;;;;;;29.33;45.70;94540.25;5072146;28;20212;-61
2022/07/26 09:43:03;;;;;;;11.07;9.88;;;;;;;29.71;45.33;94526.94;5072241;28;20275;-59
2022/07/26 09:45:30;;;;;;;11.68;10.48;;;;;;;29.73;44.52;94512.59;5072120;28;20247;-60
2022/07/26 09:47:56;;;;;;;12.73;11.43;;;;;;;29.70;46.80;94471.09;5054087;28;20209;-61
2022/07/26 09:50:28;;;;;;;12.00;10.75;;;;;;;29.98;43.49;94524.28;5054001;28;20201;-62
2022/07/26 09:52:59;;;;;;;12.15;10.93;;;;;;;29.54;44.21;94486.97;5054241;28;20196;-61
2022/07/26 09:55:25;;;;;;;13.05;11.25;;;;;;;29.35;42.96;94501.50;5072119;28;20270;-60
2022/07/26 09:57:51;;;;;;;11.07;9.38;;;;;;;29.61;41.98;94517.16;5072023;28;20220;-60
2022/07/26 10:00:17;;;;;;;11.35;9.57;;;;;;;29.81;38.93;94569.81;5071679;28;20267;-59
2022/07/26 10:02:43;;;;;;;12.25;9.68;;;;;;;29.84;40.43;94511.59;5053872;28;20727;-61
2022/07/26 10:05:09;;;;;;;10.02;9.02;;;;;;;30.34;41.10;94486.75;5071563;28;20185;-60
2022/07/26 10:07:36;;;;;;;11.02;9.93;;;;;;;30.63;40.28;94493.16;5071095;28;20196;-59
2022/07/26 10:10:13;;;;;;;11.27;9.85;;;;;;;30.96;41.52;94463.88;5071256;28;20330;-62
2022/07/26 10:12:42;;;;;;;11.38;10.15;;;;;;;30.96;40.02;94489.34;5053965;28;20188;-60
2022/07/26 10:15:39;;;;;;;11.13;9.95;;;;;;;30.95;40.10;94475.41;5071420;28;20181;-64
2022/07/26 10:18:09;;;;;;;11.82;10.73;;;;;;;31.29;41.84;94434.44;5053441;28;20220;-64
2022/07/26 10:20:47;;;;;;;12.45;10.82;;;;;;;31.06;38.83;94497.22;5071607;28;20200;-64
2022/07/26 10:23:38;;;;;;;12.63;10.95;;;;;;;30.72;40.30;94457.47;5071606;28;20188;-62
2022/07/26 10:26:05;;;;;;;13.45;9.38;;;;;;;30.94;39.70;94462.53;5071392;28;20220;-64
2022/07/26 10:28:33;;;;;;;10.60;9.57;;;;;;;31.10;38.24;94485.97;5071247;28;20666;-64
2022/07/26 10:31:24;;;;;;;10.30;9.40;;;;;;;31.34;38.88;94460.75;5053273;28;20613;-63
2022/07/26 10:33:51;;;;;;;11.55;10.13;;;;;;;31.90;37.21;94500.97;5071189;28;20189;-64
2022/07/26 10:36:25;;;;;;;12.68;9.80;;;;;;;31.63;36.19;94499.69;5071425;28;20771;-66
2022/07/26 10:39:13;;;;;;;11.32;10.00;;;;;;;31.54;35.64;94491.53;5071403;28;20619;-64
2022/07/26 10:41:47;;;;;;;10.38;9.32;;;;;;;31.91;37.00;94443.88;5071341;28;20295;-60
2022/07/26 10:44:21;;;;;;;11.13;10.07;;;;;;;32.45;37.83;94420.28;5071086;28;20212;-62
2022/07/26 10:47:06;;;;;;;11.00;9.90;;;;;;;32.16;33.78;94499.09;5052964;28;20211;-61
2022/07/26 10:49:37;;;;;;;10.82;9.70;;;;;;;32.26;34.47;94468.28;5069786;28;20335;-61
2022/07/26 10:52:08;;;;;;;11.25;10.20;;;;;;;31.97;34.81;94450.75;5078710;22;20695;-62
2022/07/26 10:54:57;;;;;;;11.35;10.27;;;;;;;32.19;33.88;94461.72;5070987;28;20192;-61
2022/07/26 10:57:23;;;;;;;11.23;10.13;;;;;;;32.45;36.33;94407.97;5058518;28;20225;-61
2022/07/26 10:59:49;;;;;;;12.57;10.02;;;;;;;32.64;35.55;94416.81;5071211;28;20326;-62
2022/07/26 11:02:19;;;;;;;13.45;10.35;;;;;;;32.20;36.00;94400.16;5071088;28;20287;-60
2022/07/26 11:04:45;;;;;;;10.48;9.43;;;;;;;32.27;34.74;94416.44;5071294;28;20223;-64
2022/07/26 11:07:11;;;;;;;12.82;11.52;;;;;;;32.99;35.48;94403.44;5071002;28;20689;-63
2022/07/26 11:09:38;;;;;;;12.88;11.07;;;;;;;33.14;34.09;94428.09;5070996;28;20189;-62
2022/07/26 11:12:17;;;;;;;13.45;10.48;;;;;;;32.99;34.69;94403.44;5070506;28;20200;-61
2022/07/26 11:14:44;;;;;;;12.20;10.27;;;;;;;33.13;35.54;94371.97;5070873;28;20660;-61
2022/07/26 11:17:25;;;;;;;11.25;10.02;;;;;;;33.00;34.96;94378.69;5070463;28;20228;-61
2022/07/26 11:19:51;;;;;;;10.48;9.32;;;;;;;32.91;34.98;94375.00;5054028;28;20253;-61